Tiempo atmosférico en la estación meteorológica de El Paso, Santa Cruz de Tenerife (844 m.)

Fecha
DESCASC
Temp. máxima en grados centígrados (hora)
DESCASC
Temp. mínima en grados centígrados (hora)
DESCASC
Temp. media en grados centígrados
DESCASC
Racha de viento máxima en m/sg (hora)
DESCASC
Velocidad máxima media en intervalos de 10 minutos(hora)
DESCASC
Precipitaciones diarias en mm
DESCASC
Precipitaciones de 00:00 a 06:00 en mm
DESCASC
Precipitaciones de 06:00 a 12:00 en mm
DESCASC
Precipitaciones de 12:00 a 18:00 en mm
DESCASC
Precipitaciones de 18:00 a 24:00 en mm
DESCASC
21-08-2017 33 (17:50) 19 (08:30) 26 11.94 (01:40) 7.5 (01:10) 0 0 0 0 0
20-08-2017 34.5 (17:30) 24.7 (06:00) 29.6 16.67 (00:10) 8.89 (05:30) 0 0 0 0 0
19-08-2017 30 (13:20) 23 (01:10) 26.5 24.72 (05:30) 13.61 (06:00) 0 0 0 0 0
18-08-2017 32 (12:40) 24.4 (23:50) 28.2 20.28 (23:50) 12.78 (23:40) 0 0 0 0 0
17-08-2017 31.2 (14:30) 21 (00:00) 26.1 13.89 (16:30) 8.06 (16:20) 0 0 0 0 0
16-08-2017 30 (14:50) 13.5 (00:00) 21.8 8.89 (13:40) 5.28 (13:40) 0 0 0 0 0
15-08-2017 22.4 (18:20) 11.5 (00:00) 16.9 6.67 (13:50) 3.89 (14:40) 0 0 0 0 0
14-08-2017 23.5 (15:50) 13.4 (07:00) 18.4 7.22 (17:00) 3.89 (15:30) 0 0 0 0 0
13-08-2017 27.1 (12:40) 16.4 (00:00) 21.8 5.83 (14:10) 3.89 (14:10) 0 0 0 0 0
12-08-2017 29.7 (14:40) 20.2 (00:00) 25 15.83 (01:30) 10 (02:30) 0 0 0 0 0
11-08-2017 34.3 (13:30) 26.2 (00:00) 30.3 16.67 (03:10) 10 (03:10) 0 0 0 0 0
10-08-2017 36 (15:00) 25.7 (00:00) 30.9 14.17 (23:59) 8.33 (11:20) 0 0 0 0 0
09-08-2017 36.2 (14:30) 26.8 (00:00) 31.5 12.78 (16:40) 8.33 (11:50) 0 0 0 0 0
08-08-2017 36.2 (11:50) 26.8 (00:00) 31.5 7.78 (08:50) 4.72 (02:30) 0 0 0 0 0
07-08-2017 34.8 (11:20) 19.2 (00:00) 27 8.61 (10:10) 5 (10:10) 0 0 0 0 0
06-08-2017 27.2 (18:20) 12.7 (00:00) 20 5.83 (13:00) 3.61 (13:00) 0 0 0 0 0
05-08-2017 24.7 (16:10) 13.1 (00:00) 18.9 7.5 (16:20) 4.17 (16:30) 0 0 0 0 0
04-08-2017 23.9 (16:10) 13.5 (00:00) 18.7 16.67 (00:40) 10.83 (00:20) 0 0 0 0 0
03-08-2017 21.7 (14:10) 14.7 (00:00) 18.2 18.33 (17:50) 10.83 (17:00) 0 0 0 0 0
02-08-2017 23.2 (15:00) 12.6 (00:00) 17.9 14.17 (23:30) 7.5 (23:30) 0.2 0 0.2 0 0
01-08-2017 23.6 (13:10) 13.9 (00:00) 18.8 6.11 (13:00) 4.17 (13:50) 0.8 0 0 0 0.8
31-07-2017 25.1 (10:20) 16.2 (00:00) 20.7 6.67 (16:20) 4.17 (16:30) 0 0 0 0 0
30-07-2017 32.2 (12:50) 20 (00:00) 26.1 6.39 (13:30) 3.89 (14:30) 0 0 0 0 0
29-07-2017 35 (15:00) 21.5 (00:00) 28.3 6.11 (16:30) 3.89 (14:40) 0 0 0 0 0
28-07-2017 35.8 (15:50) 26.1 (00:00) 30.9 10.28 (13:30) 6.67 (13:50) 0 0 0 0 0
27-07-2017 36.4 (14:40) 24.1 (00:00) 30.3 8.89 (13:10) 5.83 (10:40) 0 0 0 0 0
26-07-2017 32.7 (12:00) 23.4 (00:00) 28.1 7.22 (11:00) 4.72 (13:30) 0 0 0 0 0
25-07-2017 32.7 (13:00) 25.1 (00:00) 28.9 13.33 (08:20) 7.5 (02:10) 0 0 0 0 0
24-07-2017 26.5 (14:00) 14.6 (00:00) 20.6 15 (01:30) 9.44 (01:10) 0 0 0 0 0
23-07-2017 20.9 (14:50) 14.8 (00:00) 17.8 17.22 (00:40) 10.56 (13:50) 0 0 0 0 0

Gráficas

Temp. máximas Temp. mínimas Temp. medias Precipitaciones Rachas de viento máximas Velocidades máximas media en intervalos de 10 minutos

Datos horarios

Fecha y hora oficial Temperatura (ºC) Velocidad del viento (km/h) Dirección del viento Racha (km/h) Dirección de racha Precipitación (mm) Presión (hPa) Tendencia (hPa) Humedad (%)
2017-08-21 23:00:00 26.2 6 Este 10 Este 0 -- -- 27
2017-08-21 22:00:00 27.2 4 Este 11 Este 0 -- -- 29
2017-08-21 21:00:00 29.5 2 Este 6 Oeste 0 -- -- 24
2017-08-21 20:00:00 31.7 5 Oeste 10 Oeste 0 -- -- 19
2017-08-21 19:00:00 32.6 4 Oeste 14 Oeste 0 -- -- 22
2017-08-21 18:00:00 33 11 Oeste 16 Oeste 0 -- -- 31
2017-08-21 17:00:00 31.8 8 Oeste 27 Oeste 0 -- -- 34
2017-08-21 16:00:00 32.1 11 Oeste 19 Oeste 0 -- -- 32
2017-08-21 15:00:00 31.4 10 Oeste 23 Oeste 0 -- -- 30
2017-08-21 14:00:00 30.6 8 Noroeste 24 Oeste 0 -- -- 38
2017-08-21 13:00:00 29.2 5 Oeste 18 Oeste 0 -- -- 38
2017-08-21 12:00:00 29.8 14 Oeste 21 Oeste 0 -- -- 44
2017-08-21 11:00:00 31.4 6 Sudoeste 19 Oeste 0 -- -- 29
2017-08-21 10:00:00 28.9 8 Sur 23 Este 0 -- -- 12
2017-08-21 09:00:00 24.9 13 Sudeste 30 Sudeste 0 -- -- 26
2017-08-21 08:00:00 19.6 5 Este 24 Sudeste 0 -- -- 74
2017-08-21 07:00:00 23.7 14 Sudeste 30 Oeste 0 -- -- 22
2017-08-21 06:00:00 23.9 2 Este 13 Este 0 -- -- 20
2017-08-21 05:00:00 24.8 5 Este 15 Este 0 -- -- 20
2017-08-21 04:00:00 26.9 8 Este 22 Este 0 -- -- 19
2017-08-21 03:00:00 27.9 4 Oeste 41 Este 0 -- -- 19
2017-08-21 02:00:00 29.4 17 Este 43 Este 0 -- -- 12
2017-08-21 01:00:00 28.1 21 Este 39 Este 0 -- -- 15
2017-08-21 00:00:00 27.3 12 Este 26 Este 0 -- -- 18
2017-08-20 23:00:00 25.6 3 Este 15 Sudeste 0 -- -- 46
2017-08-20 22:00:00 28.2 11 Este 20 Este 0 -- -- 21
2017-08-20 21:00:00 29.4 6 Oeste 23 Sudeste 0 -- -- 39
2017-08-20 20:00:00 31 13 Sudeste 29 Sudeste 0 -- -- 20
2017-08-20 19:00:00 33 10 Este 24 Sudeste 0 -- -- 19
2017-08-20 18:00:00 34.4 11 Oeste 21 Este 0 -- -- 26
2017-08-20 17:00:00 33.8 16 Este 37 Este 0 -- -- 16
2017-08-20 16:00:00 33.4 21 Este 36 Este 0 -- -- 16
2017-08-20 15:00:00 31.1 9 Oeste 40 Este 0 -- -- 41
2017-08-20 14:00:00 34 19 Sudeste 46 Este 0 -- -- 19
2017-08-20 13:00:00 33.3 25 Este 51 Sudeste 0 -- -- 12
2017-08-20 12:00:00 32.1 31 Este 51 Este 0 -- -- 14
2017-08-20 11:00:00 31.6 21 Este 44 Este 0 -- -- 16
2017-08-20 10:00:00 28 24 Este 56 Este 0 -- -- 24
2017-08-20 09:00:00 25.4 26 Este 51 Este 0 -- -- 27
2017-08-20 08:00:00 25.7 28 Este 52 Este 0 -- -- 20
2017-08-20 07:00:00 26 31 Este 54 Este 0 -- -- 17
2017-08-20 06:00:00 24.7 31 Este 59 Este 0 -- -- 22
2017-08-20 05:00:00 25.1 26 Este 54 Este 0 -- -- 21
2017-08-20 04:00:00 25.6 22 Este 53 Este 0 -- -- 19
2017-08-20 03:00:00 26.7 23 Este 54 Este 0 -- -- 15
2017-08-20 02:00:00 27.3 28 Este 54 Este 0 -- -- 14
2017-08-20 01:00:00 27.6 25 Este 60 Este 0 -- -- 13
2017-08-20 00:00:00 26.6 33 Este 62 Nordeste 0 -- -- 15
2017-08-19 23:00:00 26.4 25 Este 58 Este 0 -- -- 16
2017-08-19 22:00:00 26.2 33 Este 63 Este 0 -- -- 17
2017-08-19 21:00:00 26.1 32 Este 61 Este 0 -- -- 18
2017-08-19 20:00:00 26.5 31 Este 59 Este 0 -- -- 23
2017-08-19 19:00:00 26.5 24 Este 60 Este 0 -- -- 31
2017-08-19 18:00:00 27.2 34 Este 63 Este 0 -- -- 34
2017-08-19 17:00:00 27.8 41 Este 66 Sudeste 0 -- -- 37
2017-08-19 16:00:00 28 41 Este 68 Este 0 -- -- 32
2017-08-19 15:00:00 27.9 39 Este 62 Este 0 -- -- 34
2017-08-19 14:00:00 29.7 36 Este 60 Este 0 -- -- 28
2017-08-19 13:00:00 29.5 40 Este 70 Este 0 -- -- 26
2017-08-19 12:00:00 29.8 39 Este 69 Este 0 -- -- 22
2017-08-19 11:00:00 28.8 38 Este 66 Este 0 -- -- 24
2017-08-19 10:00:00 27.6 41 Este 76 Este 0 -- -- 21
2017-08-19 09:00:00 25.3 40 Este 75 Este 0 -- -- 24
2017-08-19 08:00:00 24.3 41 Este 69 Este 0 -- -- 26
2017-08-19 07:00:00 23.8 41 Este 74 Este 0 -- -- 28
2017-08-19 06:00:00 23.7 49 Este 89 Este 0 -- -- 30
2017-08-19 05:00:00 23.4 44 Este 75 Este 0 -- -- 29
2017-08-19 04:00:00 23.8 46 Este 73 Este 0 -- -- 28
2017-08-19 03:00:00 23.6 41 Este 71 Este 0 -- -- 30
2017-08-19 02:00:00 23.4 38 Este 64 Este 0 -- -- 34
2017-08-19 01:00:00 23.1 39 Este 68 Este 0 -- -- 35
2017-08-19 00:00:00 24.5 45 Este 73 Este 0 -- -- 31
2017-08-18 23:00:00 24.7 42 Este 66 Este 0 -- -- 29
2017-08-18 22:00:00 25.1 31 Este 67 Este 0 -- -- 27
2017-08-18 21:00:00 26.1 26 Este 59 Este 0 -- -- 24
2017-08-18 20:00:00 26.2 30 Este 55 Este 0 -- -- 27
2017-08-18 19:00:00 28.2 29 Este 53 Este 0 -- -- 29
2017-08-18 18:00:00 29.6 32 Este 54 Este 0 -- -- 29
2017-08-18 17:00:00 30.3 28 Este 50 Este 0 -- -- 27
2017-08-18 16:00:00 31.7 22 Este 52 Este 0 -- -- 25
2017-08-18 15:00:00 30.4 28 Este 55 Este 0 -- -- 30
2017-08-18 14:00:00 30.7 33 Este 57 Este 0 -- -- 30
2017-08-18 13:00:00 31.9 21 Este 47 Este 0 -- -- 22
2017-08-18 12:00:00 31.2 19 Este 58 Este 0 -- -- 22
2017-08-18 11:00:00 30.4 31 Este 53 Este 0 -- -- 18
2017-08-18 10:00:00 30 26 Este 49 Este 0 -- -- 16
2017-08-18 09:00:00 28.7 30 Este 52 Este 0 -- -- 16
2017-08-18 08:00:00 27.8 22 Este 48 Este 0 -- -- 17
2017-08-18 07:00:00 27.6 24 Este 50 Este 0 -- -- 17
2017-08-18 06:00:00 27.7 27 Este 53 Este 0 -- -- 17
2017-08-18 05:00:00 27.7 29 Este 57 Este 0 -- -- 17
2017-08-18 04:00:00 27.9 26 Este 49 Este 0 -- -- 17
2017-08-18 03:00:00 28 25 Este 50 Este 0 -- -- 17
2017-08-18 02:00:00 28.3 24 Este 46 Este 0 -- -- 18
2017-08-18 01:00:00 28.3 22 Este 48 Este 0 -- -- 18
2017-08-18 00:00:00 28.3 27 Este 47 Este 0 -- -- 18
2017-08-17 23:00:00 28.3 28 Este 44 Este 0 -- -- 18
2017-08-17 22:00:00 27.7 22 Este 44 Este 0 -- -- 20
2017-08-17 21:00:00 27.5 21 Este 44 Este 0 -- -- 23
2017-08-17 20:00:00 28.5 22 Este 42 Este 0 -- -- 23
2017-08-17 19:00:00 29 22 Este 49 Este 0 -- -- 24
2017-08-17 18:00:00 30 26 Este 46 Este 0 -- -- 24
2017-08-17 17:00:00 30.1 25 Este 50 Este 0 -- -- 25
2017-08-17 16:00:00 30.4 28 Este 49 Este 0 -- -- 24
2017-08-17 15:00:00 30.6 26 Este 40 Este 0 -- -- 24
2017-08-17 14:00:00 30.4 26 Este 46 Este 0 -- -- 25
2017-08-17 13:00:00 30 24 Este 40 Este 0 -- -- 26
2017-08-17 12:00:00 30.1 26 Este 42 Este 0 -- -- 24
2017-08-17 11:00:00 28.6 23 Este 42 Este 0 -- -- 27
2017-08-17 10:00:00 27.5 22 Este 39 Este 0 -- -- 28
2017-08-17 09:00:00 25.2 19 Sudeste 33 Sudeste 0 -- -- 32
2017-08-17 08:00:00 23.9 17 Sudeste 31 Sudeste 0 -- -- 34
2017-08-17 07:00:00 23.9 16 Este 31 Este 0 -- -- 35
2017-08-17 06:00:00 23.8 20 Sudeste 39 Sudeste 0 -- -- 38
2017-08-17 05:00:00 24.2 22 Sudeste 36 Este 0 -- -- 36
2017-08-17 04:00:00 21.5 6 Este 11 Nordeste 0 -- -- 33
2017-08-17 03:00:00 21.2 5 Este 9 Nordeste 0 -- -- 36
2017-08-17 02:00:00 22 5 Este 23 Sudeste 0 -- -- 36
2017-08-17 01:00:00 22 5 Este 10 Este 0 -- -- 37
2017-08-17 00:00:00 24.2 8 Sudeste 24 Sudeste 0 -- -- 36
2017-08-16 23:00:00 24.1 15 Sudeste 26 Este 0 -- -- 37
2017-08-16 22:00:00 24.3 15 Sudeste 28 Este 0 -- -- 38
2017-08-16 21:00:00 25 14 Sudeste 25 Sudeste 0 -- -- 35
2017-08-16 20:00:00 26.1 5 Oeste 16 Oeste 0 -- -- 60
2017-08-16 19:00:00 27.6 9 Oeste 14 Oeste 0 -- -- 55
2017-08-16 18:00:00 27.8 11 Oeste 21 Oeste 0 -- -- 54
2017-08-16 17:00:00 28 10 Oeste 19 Oeste 0 -- -- 49
2017-08-16 16:00:00 27.9 13 Oeste 23 Oeste 0 -- -- 51
2017-08-16 15:00:00 29.1 18 Oeste 32 Sudeste 0 -- -- 47
2017-08-16 14:00:00 28.6 15 Sudeste 32 Este 0 -- -- 32
2017-08-16 13:00:00 24 15 Oeste 22 Oeste 0 -- -- 64
2017-08-16 12:00:00 23.9 7 Oeste 18 Oeste 0 -- -- 63
2017-08-16 11:00:00 22.3 8 Oeste 13 Oeste 0 -- -- 64
2017-08-16 10:00:00 21.1 8 Oeste 13 Oeste 0 -- -- 67
2017-08-16 09:00:00 16 5 Este 7 Este 0 -- -- 80
2017-08-16 08:00:00 14.4 2 Sur 10 Oeste 0 -- -- 88
2017-08-16 07:00:00 13.8 4 Nordeste 9 Este 0 -- -- 94
2017-08-16 06:00:00 14 3 Nordeste 17 Nordeste 0 -- -- 89
2017-08-16 05:00:00 14.7 6 Oeste 17 Oeste 0 -- -- 85
2017-08-16 04:00:00 14.5 4 Oeste 17 Este 0 -- -- 85
2017-08-16 03:00:00 14 5 Norte 14 Sudeste 0 -- -- 78
2017-08-16 02:00:00 14.2 5 Sur 12 Nordeste 0 -- -- 85
2017-08-16 01:00:00 14.3 2 Norte 8 Este 0 -- -- 75
2017-08-16 00:00:00 15.3 3 Este 5 Este 0 -- -- 83
2017-08-15 23:00:00 16.9 3 Este 6 Este 0 -- -- 81
2017-08-15 22:00:00 18.7 3 Noroeste 9 Oeste 0 -- -- 82
2017-08-15 21:00:00 19.4 5 Noroeste 12 Oeste 0 -- -- 80
2017-08-15 20:00:00 20.6 6 Oeste 18 Oeste 0 -- -- 74
2017-08-15 19:00:00 22.2 10 Oeste 22 Oeste 0 -- -- 68
2017-08-15 18:00:00 22.3 11 Oeste 21 Oeste 0 -- -- 68
2017-08-15 17:00:00 21.9 12 Oeste 21 Oeste 0 -- -- 71
2017-08-15 16:00:00 22.1 13 Oeste 23 Oeste 0 -- -- 70
2017-08-15 15:00:00 22.2 14 Oeste 23 Oeste 0 -- -- 70
2017-08-15 14:00:00 22.2 13 Oeste 24 Oeste 0 -- -- 69
2017-08-15 13:00:00 21.7 13 Oeste 23 Oeste 0 -- -- 68
2017-08-15 12:00:00 21.7 12 Oeste 20 Oeste 0 -- -- 68
2017-08-15 11:00:00 21.9 8 Oeste 15 Oeste 0 -- -- 62
2017-08-15 10:00:00 18.9 3 Nordeste 6 Este 0 -- -- 65
2017-08-15 09:00:00 14.1 3 Este 9 Este 0 -- -- 73
2017-08-15 08:00:00 11.6 5 Este 9 Este 0 -- -- 79
2017-08-15 07:00:00 12 4 Este 9 Este 0 -- -- 83
2017-08-15 06:00:00 12.2 2 Este 6 Este 0 -- -- 82
2017-08-15 05:00:00 12.7 3 Este 8 Este 0 -- -- 79
2017-08-15 04:00:00 13.4 4 Este 7 Este 0 -- -- 87
2017-08-15 03:00:00 14 4 Este 6 Este 0 -- -- 83
2017-08-15 02:00:00 15.1 3 Este 6 Este 0 -- -- 81
2017-08-15 01:00:00 16.8 3 Este 6 Nordeste 0 -- -- 79
2017-08-15 00:00:00 17.7 3 Nordeste 9 Este 0 -- -- 79
2017-08-14 23:00:00 17.9 3 Norte 6 Norte 0 -- -- 80
2017-08-14 22:00:00 18.3 4 Norte 9 Oeste 0 -- -- 77
2017-08-14 21:00:00 19.5 6 Oeste 14 Oeste 0 -- -- 72
2017-08-14 20:00:00 21.3 8 Noroeste 18 Oeste 0 -- -- 65
2017-08-14 19:00:00 22.3 10 Oeste 24 Oeste 0 -- -- 61
2017-08-14 18:00:00 22.7 12 Oeste 26 Oeste 0 -- -- 58
2017-08-14 17:00:00 23.5 13 Oeste 26 Oeste 0 -- -- 56
2017-08-14 16:00:00 23.4 12 Oeste 24 Oeste 0 -- -- 57
2017-08-14 15:00:00 23.1 12 Oeste 22 Oeste 0 -- -- 57
2017-08-14 14:00:00 22.7 13 Oeste 26 Oeste 0 -- -- 61
2017-08-14 13:00:00 22.5 12 Oeste 23 Oeste 0 -- -- 63
2017-08-14 12:00:00 23.1 8 Oeste 18 Oeste 0 -- -- 62
2017-08-14 11:00:00 21.4 12 Oeste 17 Oeste 0 -- -- 64
2017-08-14 10:00:00 19.8 2 Sur 8 Oeste 0 -- -- 70
2017-08-14 09:00:00 15 4 Este 8 Este 0 -- -- 91
2017-08-14 08:00:00 14.3 0 Calma 6 Sudoeste 0 -- -- 86
2017-08-14 07:00:00 13.4 0 Calma 4 Este 0 -- -- 72
2017-08-14 06:00:00 14.1 3 Este 6 Este 0 -- -- 71
2017-08-14 05:00:00 15.8 3 Este 12 Sudoeste 0 -- -- 83
2017-08-14 04:00:00 16.8 3 Sudeste 6 Oeste 0 -- -- 37
2017-08-14 03:00:00 17.7 5 Sudeste 8 Este 0 -- -- 36
2017-08-14 02:00:00 17.5 4 Este 6 Oeste 0 -- -- 38
2017-08-14 01:00:00 18.8 5 Este 10 Este 0 -- -- 27
2017-08-14 00:00:00 19.3 6 Este 10 Este 0 -- -- 33
2017-08-13 23:00:00 19.3 4 Este 5 Este 0 -- -- 59
2017-08-13 22:00:00 20.9 2 Este 5 Oeste 0 -- -- 76
2017-08-13 21:00:00 22.3 5 Oeste 9 Oeste 0 -- -- 73
2017-08-13 20:00:00 23.6 5 Oeste 15 Oeste 0 -- -- 70
2017-08-13 19:00:00 24.4 9 Oeste 21 Oeste 0 -- -- 68
2017-08-13 18:00:00 25.3 9 Oeste 20 Oeste 0 -- -- 64
2017-08-13 17:00:00 25.6 12 Oeste 21 Oeste 0 -- -- 63
2017-08-13 16:00:00 26.4 12 Oeste 21 Oeste 0 -- -- 61
2017-08-13 15:00:00 26.5 11 Oeste 21 Oeste 0 -- -- 60
2017-08-13 14:00:00 26.8 13 Oeste 19 Oeste 0 -- -- 56
2017-08-13 13:00:00 26.7 12 Oeste 21 Oeste 0 -- -- 56
2017-08-13 12:00:00 26.4 7 Oeste 17 Oeste 0 -- -- 42
2017-08-13 11:00:00 26.2 8 Oeste 15 Oeste 0 -- -- 36
2017-08-13 10:00:00 25.4 2 Oeste 9 Este 0 -- -- 30
2017-08-13 09:00:00 19 3 Este 9 Este 0 -- -- 38
2017-08-13 08:00:00 16.4 4 Este 8 Este 0 -- -- 39
2017-08-13 07:00:00 16.8 2 Este 8 Este 0 -- -- 38
2017-08-13 06:00:00 17.2 3 Este 8 Este 0 -- -- 38
2017-08-13 05:00:00 17.6 3 Este 6 Este 0 -- -- 37
2017-08-13 04:00:00 18.2 4 Este 10 Este 0 -- -- 36
2017-08-13 03:00:00 18.8 5 Este 9 Nordeste 0 -- -- 36
2017-08-13 02:00:00 19.1 2 Sudeste 12 Nordeste 0 -- -- 56
2017-08-13 01:00:00 19.6 0 Calma 10 Oeste 0 -- -- 58
2017-08-13 00:00:00 21.3 2 Este 9 Este 0 -- -- 52
2017-08-12 23:00:00 21.8 2 Este 8 Oeste 0 -- -- 58
2017-08-12 22:00:00 22.6 2 Norte 6 Oeste 0 -- -- 60
2017-08-12 21:00:00 24 0 Calma 10 Oeste 0 -- -- 53
2017-08-12 20:00:00 24.9 4 Noroeste 12 Oeste 0 -- -- 59
2017-08-12 19:00:00 24.9 8 Oeste 19 Oeste 0 -- -- 64
2017-08-12 18:00:00 26.5 13 Oeste 20 Oeste 0 -- -- 56
2017-08-12 17:00:00 28.2 15 Oeste 22 Oeste 0 -- -- 52
2017-08-12 16:00:00 29.2 11 Oeste 22 Oeste 0 -- -- 29
2017-08-12 15:00:00 29.4 17 Oeste 24 Oeste 0 -- -- 42
2017-08-12 14:00:00 28.7 9 Oeste 19 Oeste 0 -- -- 43
2017-08-12 13:00:00 28.2 9 Oeste 25 Oeste 0 -- -- 47
2017-08-12 12:00:00 28.5 4 Oeste 22 Oeste 0 -- -- 39
2017-08-12 11:00:00 29 8 Oeste 15 Oeste 0 -- -- 23
2017-08-12 10:00:00 27.3 6 Oeste 11 Norte 0 -- -- 27
2017-08-12 09:00:00 22.8 3 Sudeste 9 Nordeste 0 -- -- 26
2017-08-12 08:00:00 20.4 2 Este 12 Este 0 -- -- 31
2017-08-12 07:00:00 21.9 4 Sudeste 10 Este 0 -- -- 22
2017-08-12 06:00:00 22.7 6 Este 10 Oeste 0 -- -- 22
2017-08-12 05:00:00 25.5 4 Oeste 24 Este 0 -- -- 24
2017-08-12 04:00:00 26.5 6 Nordeste 50 Este 0 -- -- 10
2017-08-12 03:00:00 25 34 Este 55 Este 0 -- -- 5
2017-08-12 02:00:00 25.2 32 Este 57 Este 0 -- -- 6
2017-08-12 01:00:00 26.1 27 Este 56 Sudeste 0 -- -- 10
2017-08-12 00:00:00 26.6 34 Este 51 Este 0 -- -- 9
2017-08-11 23:00:00 27 17 Este 41 Este 0 -- -- 14
2017-08-11 22:00:00 27.1 22 Este 38 Este 0 -- -- 14
2017-08-11 21:00:00 27 15 Este 31 Este 0 -- -- 19
2017-08-11 20:00:00 26.9 5 Noroeste 19 Oeste 0 -- -- 48
2017-08-11 19:00:00 27.5 12 Oeste 24 Oeste 0 -- -- 58
2017-08-11 18:00:00 28.8 13 Oeste 28 Oeste 0 -- -- 53
2017-08-11 17:00:00 28.7 14 Oeste 26 Oeste 0 -- -- 52
2017-08-11 16:00:00 29.5 14 Oeste 24 Oeste 0 -- -- 50
2017-08-11 15:00:00 29.3 15 Oeste 28 Oeste 0 -- -- 51
2017-08-11 14:00:00 32.9 18 Oeste 45 Este 0 -- -- 29
2017-08-11 13:00:00 34.1 27 Este 55 Este 0 -- -- 12
2017-08-11 12:00:00 32.3 30 Este 53 Este 0 -- -- 15
2017-08-11 11:00:00 30.3 32 Este 53 Este 0 -- -- 14
2017-08-11 10:00:00 29.5 29 Este 52 Este 0 -- -- 13
2017-08-11 09:00:00 27.5 29 Este 48 Este 0 -- -- 12
2017-08-11 08:00:00 26.7 30 Este 49 Este 0 -- -- 11
2017-08-11 07:00:00 26.2 36 Este 49 Este 0 -- -- 11
2017-08-11 06:00:00 28.8 28 Este 50 Este 0 -- -- 9
2017-08-11 05:00:00 28 30 Este 53 Sudeste 0 -- -- 10
2017-08-11 04:00:00 27.3 36 Este 60 Nordeste 0 -- -- 11
2017-08-11 03:00:00 27.7 33 Este 53 Este 0 -- -- 10
2017-08-11 02:00:00 26.8 34 Este 53 Este 0 -- -- 13
2017-08-11 01:00:00 26.6 33 Este 51 Este 0 -- -- 14
2017-08-11 00:00:00 27.6 29 Este 51 Este 0 -- -- 15
2017-08-10 23:00:00 28.3 24 Este 41 Este 0 -- -- 15
2017-08-10 22:00:00 26.5 4 Norte 11 Sudoeste 0 -- -- 39
2017-08-10 21:00:00 28.1 2 Norte 14 Oeste 0 -- -- 50
2017-08-10 20:00:00 30.1 8 Oeste 16 Oeste 0 -- -- 36
2017-08-10 19:00:00 30.9 8 Oeste 19 Noroeste 0 -- -- 44
2017-08-10 18:00:00 32.2 11 Oeste 39 Este 0 -- -- 46
2017-08-10 17:00:00 34 13 Nordeste 41 Este 0 -- -- 24
2017-08-10 16:00:00 34.8 18 Este 44 Este 0 -- -- 22
2017-08-10 15:00:00 36 22 Este 44 Sudeste 0 -- -- 19
2017-08-10 14:00:00 33.9 26 Este 48 Este 0 -- -- 21
2017-08-10 13:00:00 32.9 26 Este 41 Este 0 -- -- 20
2017-08-10 12:00:00 32.9 25 Este 47 Este 0 -- -- 20
2017-08-10 11:00:00 31.7 29 Este 46 Sudeste 0 -- -- 21
2017-08-10 10:00:00 30.1 28 Este 49 Este 0 -- -- 23
2017-08-10 09:00:00 28.1 27 Este 48 Este 0 -- -- 22
2017-08-10 08:00:00 27.2 25 Este 44 Este 0 -- -- 21
2017-08-10 07:00:00 26.8 19 Este 40 Este 0 -- -- 20
2017-08-10 06:00:00 27.2 19 Este 45 Este 0 -- -- 19
2017-08-10 05:00:00 26.4 21 Este 42 Este 0 -- -- 19
2017-08-10 04:00:00 26.1 21 Este 41 Este 0 -- -- 17
2017-08-10 03:00:00 25.7 22 Este 37 Este 0 -- -- 17
2017-08-10 02:00:00 26 18 Este 39 Este 0 -- -- 17
2017-08-10 01:00:00 28.3 22 Este 38 Este 0 -- -- 24
2017-08-10 00:00:00 29.5 23 Este 39 Este 0 -- -- 23
2017-08-09 23:00:00 30.7 21 Este 37 Este 0 -- -- 21
2017-08-09 22:00:00 30 21 Este 43 Este 0 -- -- 22
2017-08-09 21:00:00 30.5 22 Este 41 Este 0 -- -- 22
2017-08-09 20:00:00 31.9 22 Este 44 Este 0 -- -- 21
2017-08-09 19:00:00 34.3 23 Este 40 Este 0 -- -- 20
2017-08-09 18:00:00 35.2 23 Este 45 Este 0 -- -- 19
2017-08-09 17:00:00 35.4 25 Este 46 Este 0 -- -- 19
2017-08-09 16:00:00 35.4 26 Este 44 Este 0 -- -- 19
2017-08-09 15:00:00 36.2 24 Este 38 Este 0 -- -- 19
2017-08-09 14:00:00 35.9 24 Este 40 Sudeste 0 -- -- 20
2017-08-09 13:00:00 35.6 23 Este 40 Este 0 -- -- 21
2017-08-09 12:00:00 34.3 27 Este 43 Este 0 -- -- 22
2017-08-09 11:00:00 33.5 22 Este 43 Este 0 -- -- 22
2017-08-09 10:00:00 31.3 24 Este 39 Sudeste 0 -- -- 24
2017-08-09 09:00:00 29.6 22 Este 40 Este 0 -- -- 26
2017-08-09 08:00:00 27.5 22 Este 43 Sudeste 0 -- -- 26
2017-08-09 07:00:00 27 18 Sudeste 33 Este 0 -- -- 26
2017-08-09 06:00:00 28.2 16 Sudeste 36 Este 0 -- -- 28
2017-08-09 05:00:00 28.4 16 Sudeste 28 Este 0 -- -- 27
2017-08-09 04:00:00 28.4 14 Sudeste 33 Este 0 -- -- 27
2017-08-09 03:00:00 28.5 12 Sudeste 32 Sudeste 0 -- -- 27
2017-08-09 02:00:00 27 3 Noroeste 13 Sur 0 -- -- 31
2017-08-09 01:00:00 27.8 7 Sudeste 13 Sur 0 -- -- 26
2017-08-09 00:00:00 29.4 6 Este 21 Este 0 -- -- 24
2017-08-08 23:00:00 28.1 8 Este 17 Este 0 -- -- 28
2017-08-08 22:00:00 29.5 4 Noroeste 15 Sudeste 0 -- -- 40
2017-08-08 21:00:00 30.7 10 Sudeste 24 Este 0 -- -- 26
2017-08-08 20:00:00 32.8 2 Sudoeste 14 Oeste 0 -- -- 31
2017-08-08 19:00:00 34.1 7 Oeste 17 Oeste 0 -- -- 28
2017-08-08 18:00:00 33.9 9 Oeste 18 Oeste 0 -- -- 36
2017-08-08 17:00:00 34.6 12 Oeste 16 Oeste 0 -- -- 34
2017-08-08 16:00:00 33.9 12 Oeste 21 Oeste 0 -- -- 36
2017-08-08 15:00:00 35.4 9 Oeste 19 Oeste 0 -- -- 28
2017-08-08 14:00:00 35.3 12 Oeste 25 Oeste 0 -- -- 30
2017-08-08 13:00:00 34.5 12 Oeste 19 Oeste 0 -- -- 25
2017-08-08 12:00:00 35.6 12 Oeste 20 Este 0 -- -- 24
2017-08-08 11:00:00 35.1 13 Este 24 Este 0 -- -- 23
2017-08-08 10:00:00 32.2 15 Sudeste 26 Sudeste 0 -- -- 24
2017-08-08 09:00:00 30.1 16 Sudeste 28 Este 0 -- -- 25
2017-08-08 08:00:00 27.4 0 Calma 10 Este 0 -- -- 31
2017-08-08 07:00:00 27 3 Nordeste 11 Sudeste 0 -- -- 30
2017-08-08 06:00:00 27.5 4 Sudeste 9 Nordeste 0 -- -- 29
2017-08-08 05:00:00 29.9 6 Este 19 Este 0 -- -- 26
2017-08-08 04:00:00 29.2 5 Sudeste 10 Sudeste 0 -- -- 27
2017-08-08 03:00:00 30.1 7 Sur 23 Sudeste 0 -- -- 26
2017-08-08 02:00:00 30.2 14 Sudeste 21 Sudeste 0 -- -- 25
2017-08-08 01:00:00 27.2 6 Este 10 Este 0 -- -- 31
2017-08-08 00:00:00 27.5 3 Este 5 Este 0 -- -- 33
2017-08-07 23:00:00 28.2 5 Este 10 Este 0 -- -- 32
2017-08-07 22:00:00 28.8 8 Este 12 Este 0 -- -- 32
2017-08-07 21:00:00 30.7 0 Calma 8 Oeste 0 -- -- 32
2017-08-07 20:00:00 32.6 4 Oeste 9 Oeste 0 -- -- 30
2017-08-07 19:00:00 33.4 5 Oeste 16 Oeste 0 -- -- 32
2017-08-07 18:00:00 34.4 8 Oeste 19 Oeste 0 -- -- 27
2017-08-07 17:00:00 34.1 8 Oeste 19 Oeste 0 -- -- 27
2017-08-07 16:00:00 33.3 10 Oeste 21 Oeste 0 -- -- 31
2017-08-07 15:00:00 33.5 12 Oeste 19 Oeste 0 -- -- 37
2017-08-07 14:00:00 32.7 11 Oeste 21 Oeste 0 -- -- 32
2017-08-07 13:00:00 32.1 10 Oeste 18 Oeste 0 -- -- 37
2017-08-07 12:00:00 33 10 Oeste 26 Este 0 -- -- 39
2017-08-07 11:00:00 34.2 13 Este 31 Sudeste 0 -- -- 18
2017-08-07 10:00:00 31.5 8 Este 25 Sudeste 0 -- -- 21
2017-08-07 09:00:00 24.4 6 Sudeste 15 Este 0 -- -- 27
2017-08-07 08:00:00 25.3 5 Este 22 Sudeste 0 -- -- 27
2017-08-07 07:00:00 19.5 5 Este 11 Este 0 -- -- 35
2017-08-07 06:00:00 19.7 5 Sudeste 9 Sudeste 0 -- -- 32
2017-08-07 05:00:00 19.2 5 Este 9 Este 0 -- -- 33
2017-08-07 04:00:00 20 5 Sudeste 9 Sudeste 0 -- -- 33
2017-08-07 03:00:00 19.9 5 Sudeste 10 Este 0 -- -- 34
2017-08-07 02:00:00 20.3 5 Sudeste 9 Este 0 -- -- 34
2017-08-07 01:00:00 20.3 8 Este 13 Este 0 -- -- 35
2017-08-07 00:00:00 20.9 6 Este 10 Este 0 -- -- 38
2017-08-06 23:00:00 21.2 3 Sudeste 10 Este 0 -- -- 47
2017-08-06 22:00:00 22.2 5 Este 10 Oeste 0 -- -- 71
2017-08-06 21:00:00 24.6 3 Norte 7 Oeste 0 -- -- 68
2017-08-06 20:00:00 25.6 4 Oeste 15 Oeste 0 -- -- 65
2017-08-06 19:00:00 26.8 9 Oeste 15 Oeste 0 -- -- 60
2017-08-06 18:00:00 27 8 Noroeste 17 Oeste 0 -- -- 61
2017-08-06 17:00:00 26.5 11 Oeste 19 Oeste 0 -- -- 63
2017-08-06 16:00:00 26.3 13 Oeste 21 Oeste 0 -- -- 63
2017-08-06 15:00:00 25.2 9 Oeste 21 Oeste 0 -- -- 65
2017-08-06 14:00:00 25.2 12 Oeste 21 Noroeste 0 -- -- 64
2017-08-06 13:00:00 24.7 13 Oeste 21 Oeste 0 -- -- 64
2017-08-06 12:00:00 24.5 8 Oeste 17 Oeste 0 -- -- 64
2017-08-06 11:00:00 22.8 5 Oeste 14 Oeste 0 -- -- 68
2017-08-06 10:00:00 21.1 5 Oeste 11 Oeste 0 -- -- 69
2017-08-06 09:00:00 16.2 4 Sudoeste 12 Oeste 0 -- -- 78
2017-08-06 08:00:00 12.9 0 Calma 12 Este 0 -- -- 77
2017-08-06 07:00:00 12.7 8 Este 13 Este 0 -- -- 93
2017-08-06 06:00:00 14.2 4 Este 8 Nordeste 0 -- -- 96
2017-08-06 05:00:00 14.8 2 Nordeste 8 Este 0 -- -- 93
2017-08-06 04:00:00 13.6 0 Calma 9 Este 0 -- -- 84
2017-08-06 03:00:00 14.8 4 Este 7 Este 0 -- -- 94
2017-08-06 02:00:00 15.1 4 Este 8 Este 0 -- -- 86
2017-08-06 01:00:00 15.9 6 Este 10 Este 0 -- -- 86
2017-08-06 00:00:00 16.5 3 Este 6 Nordeste 0 -- -- 86
2017-08-05 23:00:00 17.6 3 Oeste 8 Este 0 -- -- 85
2017-08-05 22:00:00 19.2 0 Calma 7 Oeste 0 -- -- 86
2017-08-05 21:00:00 20.3 6 Oeste 12 Oeste 0 -- -- 81
2017-08-05 20:00:00 21.6 8 Oeste 15 Oeste 0 -- -- 75
2017-08-05 19:00:00 22.9 11 Oeste 21 Oeste 0 -- -- 70
2017-08-05 18:00:00 23.9 12 Oeste 23 Oeste 0 -- -- 66
2017-08-05 17:00:00 24.5 12 Oeste 27 Oeste 0 -- -- 66
2017-08-05 16:00:00 24.5 12 Oeste 24 Oeste 0 -- -- 65
2017-08-05 15:00:00 23.8 12 Oeste 22 Oeste 0 -- -- 66
2017-08-05 14:00:00 23.6 13 Oeste 21 Oeste 0 -- -- 67
2017-08-05 13:00:00 23.3 10 Oeste 21 Oeste 0 -- -- 67
2017-08-05 12:00:00 23.8 9 Oeste 17 Oeste 0 -- -- 64
2017-08-05 11:00:00 22.1 8 Oeste 15 Oeste 0 -- -- 66
2017-08-05 10:00:00 20.2 6 Oeste 15 Oeste 0 -- -- 70
2017-08-05 09:00:00 15.9 3 Nordeste 8 Sudeste 0 -- -- 71
2017-08-05 08:00:00 13.7 5 Este 10 Sudeste 0 -- -- 78
2017-08-05 07:00:00 13.1 2 Este 8 Este 0 -- -- 86
2017-08-05 06:00:00 13.5 3 Sudeste 9 Este 0 -- -- 81
2017-08-05 05:00:00 14.2 4 Sudeste 14 Este 0 -- -- 89
2017-08-05 04:00:00 15 10 Este 22 Este 0 -- -- 78
2017-08-05 03:00:00 14.8 0 Calma 7 Este 0 -- -- 87
2017-08-05 02:00:00 15.4 5 Este 8 Nordeste 0 -- -- 89
2017-08-05 01:00:00 16.6 2 Norte 23 Sudeste 0 -- -- 84
2017-08-05 00:00:00 17.4 15 Este 31 Este 0 -- -- 87
2017-08-04 23:00:00 17.7 8 Este 27 Este 0 -- -- 82
2017-08-04 22:00:00 18 3 Norte 19 Este 0 -- -- 86
2017-08-04 21:00:00 18.6 17 Este 30 Este 0 -- -- 77
2017-08-04 20:00:00 20.5 14 Sudeste 38 Este 0 -- -- 70
2017-08-04 19:00:00 21.9 10 Sur 25 Sudeste 0 -- -- 61
2017-08-04 18:00:00 22.8 12 Oeste 23 Oeste 0 -- -- 69
2017-08-04 17:00:00 23.4 13 Oeste 22 Oeste 0 -- -- 66
2017-08-04 16:00:00 23.7 12 Oeste 23 Oeste 0 -- -- 63
2017-08-04 15:00:00 23.2 12 Oeste 38 Este 0 -- -- 66
2017-08-04 14:00:00 21.8 24 Este 41 Este 0 -- -- 67
2017-08-04 13:00:00 22.1 22 Este 40 Este 0 -- -- 65
2017-08-04 12:00:00 23 14 Sudeste 31 Este 0 -- -- 57
2017-08-04 11:00:00 20.9 21 Este 37 Sudeste 0 -- -- 66
2017-08-04 10:00:00 19.4 15 Este 28 Este 0 -- -- 66
2017-08-04 09:00:00 16.5 4 Este 25 Este 0 -- -- 60
2017-08-04 08:00:00 15.7 11 Este 34 Este 0 -- -- 75
2017-08-04 07:00:00 15.5 14 Este 26 Sudeste 0 -- -- 79
2017-08-04 06:00:00 14.6 12 Este 21 Este 0 -- -- 77
2017-08-04 05:00:00 14.9 6 Este 29 Sudeste 0 -- -- 77
2017-08-04 04:00:00 13.6 3 Este 10 Oeste 0 -- -- 72
2017-08-04 03:00:00 15.7 11 Sudeste 34 Sudeste 0 -- -- 70
2017-08-04 02:00:00 15.6 14 Este 42 Este 0 -- -- 77
2017-08-04 01:00:00 15.9 28 Este 60 Este 0 -- -- 79
2017-08-04 00:00:00 15.8 38 Este 60 Este 0 -- -- 80
2017-08-03 23:00:00 15.9 30 Este 52 Este 0 -- -- 84
2017-08-03 22:00:00 16.7 26 Este 64 Este 0 -- -- 85
2017-08-03 21:00:00 17 39 Este 61 Sudeste 0 -- -- 81
2017-08-03 20:00:00 18.4 31 Este 52 Sudeste 0 -- -- 78
2017-08-03 19:00:00 19.1 32 Este 56 Sudeste 0 -- -- 70
2017-08-03 18:00:00 19.6 38 Este 66 Este 0 -- -- 67
2017-08-03 17:00:00 20.1 39 Este 58 Este 0 -- -- 68
2017-08-03 16:00:00 20.7 28 Sudeste 53 Este 0 -- -- 66
2017-08-03 15:00:00 21 33 Este 51 Este 0 -- -- 63
2017-08-03 14:00:00 21.5 24 Este 42 Este 0 -- -- 62
2017-08-03 13:00:00 21.1 24 Este 50 Este 0 -- -- 61
2017-08-03 12:00:00 20.1 26 Este 48 Sudeste 0 -- -- 68
2017-08-03 11:00:00 19 28 Este 46 Este 0 -- -- 72
2017-08-03 10:00:00 18.4 16 Sudeste 42 Sudeste 0 -- -- 70
2017-08-03 09:00:00 16.8 33 Este 51 Este 0 -- -- 74
2017-08-03 08:00:00 16.1 23 Este 36 Este 0 -- -- 75
2017-08-03 07:00:00 15.1 8 Este 32 Este 0 -- -- 68
2017-08-03 06:00:00 16.1 19 Este 55 Este 0 -- -- 78
2017-08-03 05:00:00 16.3 32 Sudeste 51 Este 0 -- -- 76
2017-08-03 04:00:00 16.3 23 Este 38 Sudeste 0 -- -- 81
2017-08-03 03:00:00 16.4 14 Este 38 Este 0 -- -- 73
2017-08-03 02:00:00 16.6 18 Este 42 Este 0 -- -- 69
2017-08-03 01:00:00 16.7 21 Este 47 Este 0 -- -- 72
2017-08-03 00:00:00 16.6 22 Este 51 Este 0 -- -- 75
2017-08-02 23:00:00 16.8 21 Este 43 Este 0 -- -- 76
2017-08-02 22:00:00 18.2 17 Sudeste 27 Sudeste 0 -- -- 66
2017-08-02 21:00:00 19.4 5 Noroeste 23 Sudeste 0 -- -- 79
2017-08-02 20:00:00 20.1 15 Este 36 Este 0 -- -- 64
2017-08-02 19:00:00 20.5 20 Este 37 Este 0 -- -- 70
2017-08-02 18:00:00 22 16 Este 36 Este 0 -- -- 66
2017-08-02 17:00:00 22.1 22 Este 36 Este 0 -- -- 67
2017-08-02 16:00:00 21.9 20 Este 35 Este 0 -- -- 67
2017-08-02 15:00:00 23.2 11 Oeste 33 Este 0 -- -- 68
2017-08-02 14:00:00 21.6 19 Este 51 Este 0 -- -- 70
2017-08-02 13:00:00 21 22 Este 39 Este 0 -- -- 68
2017-08-02 12:00:00 20.3 21 Este 41 Este 0 -- -- 76
2017-08-02 11:00:00 19.7 22 Este 39 Este 0.2 -- -- 75
2017-08-02 10:00:00 19 16 Este 25 Este 0 -- -- 75
2017-08-02 09:00:00 15.2 3 Este 6 Nordeste 0 -- -- 89
2017-08-02 08:00:00 14 3 Este 8 Este 0 -- -- 95
2017-08-02 07:00:00 12.6 2 Este 7 Este 0 -- -- 91
2017-08-02 06:00:00 13.2 5 Este 10 Este 0 -- -- 90
2017-08-02 05:00:00 14 4 Este 6 Este 0 -- -- 92
2017-08-02 04:00:00 15 5 Este 9 Este 0 -- -- 92
2017-08-02 03:00:00 15 6 Este 8 Este 0 -- -- 89
2017-08-02 02:00:00 17 4 Este 10 Este 0 -- -- 91
2017-08-02 01:00:00 17.6 2 Este 7 Este 0 -- -- 90
2017-08-02 00:00:00 18.5 0 Calma 6 Oeste 0 -- -- 90
2017-08-01 23:00:00 18.5 4 Oeste 7 Oeste 0.2 -- -- 91
2017-08-01 22:00:00 18.6 3 Oeste 10 Oeste 0.4 -- -- 90
2017-08-01 21:00:00 18.9 6 Oeste 10 Oeste 0.2 -- -- 88
2017-08-01 20:00:00 19.6 5 Oeste 11 Oeste 0 -- -- 86
2017-08-01 19:00:00 19.9 6 Oeste 13 Oeste 0 -- -- 83
2017-08-01 18:00:00 20.4 8 Oeste 14 Oeste 0 -- -- 80
2017-08-01 17:00:00 21.3 8 Oeste 15 Oeste 0 -- -- 77
2017-08-01 16:00:00 21.8 11 Oeste 20 Oeste 0 -- -- 75
2017-08-01 15:00:00 23 12 Oeste 22 Oeste 0 -- -- 69
2017-08-01 14:00:00 23.3 13 Oeste 22 Oeste 0 -- -- 68
2017-08-01 13:00:00 23.5 13 Noroeste 22 Oeste 0 -- -- 66
2017-08-01 12:00:00 23.2 9 Oeste 19 Oeste 0 -- -- 64
2017-08-01 11:00:00 22.3 8 Oeste 15 Oeste 0 -- -- 64
2017-08-01 10:00:00 21.4 8 Oeste 14 Oeste 0 -- -- 62
2017-08-01 09:00:00 17.7 3 Noroeste 8 Este 0 -- -- 63
2017-08-01 08:00:00 14.9 2 Sudeste 9 Este 0 -- -- 66
2017-08-01 07:00:00 14.7 4 Este 9 Nordeste 0 -- -- 71
2017-08-01 06:00:00 14 5 Este 9 Este 0 -- -- 85
2017-08-01 05:00:00 14.1 2 Sudeste 8 Este 0 -- -- 84
2017-08-01 04:00:00 14.4 2 Este 10 Este 0 -- -- 82
2017-08-01 03:00:00 15.2 4 Este 9 Este 0 -- -- 88
2017-08-01 02:00:00 16.3 0 Calma 6 Este 0 -- -- 89
2017-08-01 01:00:00 17 3 Oeste 5 Sudoeste 0 -- -- 86
2017-08-01 00:00:00 17.6 0 Calma 10 Oeste 0 -- -- 84
2017-07-31 23:00:00 18.4 6 Oeste 10 Oeste 0 -- -- 83
2017-07-31 22:00:00 18.8 3 Sur 10 Oeste 0 -- -- 83
2017-07-31 21:00:00 19.9 6 Noroeste 15 Oeste 0 -- -- 77
2017-07-31 20:00:00 21.5 5 Noroeste 16 Oeste 0 -- -- 72
2017-07-31 19:00:00 22 9 Oeste 18 Oeste 0 -- -- 70
2017-07-31 18:00:00 23 13 Oeste 23 Oeste 0 -- -- 66
2017-07-31 17:00:00 23.5 8 Oeste 24 Oeste 0 -- -- 64
2017-07-31 16:00:00 24.4 12 Oeste 23 Oeste 0 -- -- 61
2017-07-31 15:00:00 24.5 13 Oeste 23 Oeste 0 -- -- 57
2017-07-31 14:00:00 23.8 9 Oeste 22 Noroeste 0 -- -- 60
2017-07-31 13:00:00 23.6 11 Oeste 20 Oeste 0 -- -- 61
2017-07-31 12:00:00 24 11 Oeste 17 Oeste 0 -- -- 58
2017-07-31 11:00:00 23.5 10 Oeste 15 Oeste 0 -- -- 58
2017-07-31 10:00:00 23.8 6 Oeste 14 Oeste 0 -- -- 48
2017-07-31 09:00:00 18.7 2 Nordeste 10 Oeste 0 -- -- 52
2017-07-31 08:00:00 16.9 5 Sudeste 10 Este 0 -- -- 30
2017-07-31 07:00:00 16.5 5 Sudeste 10 Este 0 -- -- 30
2017-07-31 06:00:00 16.3 6 Este 9 Este 0 -- -- 35
2017-07-31 05:00:00 17.6 3 Sudeste 8 Nordeste 0 -- -- 30
2017-07-31 04:00:00 19.6 4 Este 13 Este 0 -- -- 26
2017-07-31 03:00:00 20 5 Este 11 Sudeste 0 -- -- 22
2017-07-31 02:00:00 20.9 4 Este 13 Sudeste 0 -- -- 22
2017-07-31 01:00:00 21.9 8 Este 18 Este 0 -- -- 21
2017-07-31 00:00:00 21.8 7 Este 18 Este 0 -- -- 25
2017-07-30 23:00:00 21.1 3 Este 11 Este 0 -- -- 41
2017-07-30 22:00:00 22.4 5 Este 9 Este 0 -- -- 39
2017-07-30 21:00:00 25.2 6 Sudoeste 11 Oeste 0 -- -- 56
2017-07-30 20:00:00 26.3 5 Oeste 16 Oeste 0 -- -- 50
2017-07-30 19:00:00 28.3 10 Oeste 18 Oeste 0 -- -- 43
2017-07-30 18:00:00 29.9 9 Oeste 17 Oeste 0 -- -- 41
2017-07-30 17:00:00 30.6 10 Oeste 20 Oeste 0 -- -- 33
2017-07-30 16:00:00 31.1 10 Oeste 20 Oeste 0 -- -- 34
2017-07-30 15:00:00 30.8 10 Oeste 23 Oeste 0 -- -- 37
2017-07-30 14:00:00 32.1 7 Oeste 23 Oeste 0 -- -- 34
2017-07-30 13:00:00 32 9 Oeste 19 Oeste 0 -- -- 30
2017-07-30 12:00:00 30.8 10 Oeste 19 Noroeste 0 -- -- 31
2017-07-30 11:00:00 31.6 9 Oeste 13 Oeste 0 -- -- 19
2017-07-30 10:00:00 29.1 3 Nordeste 6 Este 0 -- -- 14
2017-07-30 09:00:00 22.8 4 Este 7 Este 0 -- -- 22
2017-07-30 08:00:00 20.2 3 Sudeste 10 Este 0 -- -- 21
2017-07-30 07:00:00 21.1 7 Este 10 Este 0 -- -- 18
2017-07-30 06:00:00 21.1 6 Este 10 Este 0 -- -- 19
2017-07-30 05:00:00 21.9 9 Este 10 Este 0 -- -- 19
2017-07-30 04:00:00 22.3 5 Sudeste 10 Este 0 -- -- 24
2017-07-30 03:00:00 22 7 Este 9 Este 0 -- -- 26
2017-07-30 02:00:00 22.6 6 Este 9 Este 0 -- -- 29
2017-07-30 01:00:00 23.7 4 Este 10 Este 0 -- -- 30
2017-07-30 00:00:00 24.2 6 Este 10 Este 0 -- -- 30
2017-07-29 23:00:00 25.5 3 Este 9 Este 0 -- -- 31
2017-07-29 22:00:00 27.1 7 Este 11 Este 0 -- -- 32
2017-07-29 21:00:00 30.2 2 Oeste 8 Oeste 0 -- -- 32
2017-07-29 20:00:00 32.4 6 Oeste 14 Oeste 0 -- -- 33
2017-07-29 19:00:00 33.8 8 Oeste 16 Oeste 0 -- -- 22
2017-07-29 18:00:00 33.8 8 Oeste 19 Oeste 0 -- -- 25
2017-07-29 17:00:00 34.5 10 Oeste 22 Oeste 0 -- -- 24
2017-07-29 16:00:00 34.9 12 Oeste 21 Oeste 0 -- -- 22
2017-07-29 15:00:00 35 10 Oeste 21 Oeste 0 -- -- 23
2017-07-29 14:00:00 34.9 11 Oeste 20 Oeste 0 -- -- 20
2017-07-29 13:00:00 34.6 13 Oeste 20 Noroeste 0 -- -- 19
2017-07-29 12:00:00 34.6 12 Oeste 17 Oeste 0 -- -- 19
2017-07-29 11:00:00 34.4 6 Oeste 10 Noroeste 0 -- -- 20
2017-07-29 10:00:00 31 4 Este 8 Este 0 -- -- 22
2017-07-29 09:00:00 24.9 5 Este 9 Este 0 -- -- 35
2017-07-29 08:00:00 21.5 4 Sudeste 8 Este 0 -- -- 36
2017-07-29 07:00:00 22.2 3 Sudeste 6 Este 0 -- -- 35
2017-07-29 06:00:00 23.1 3 Este 9 Este 0 -- -- 33
2017-07-29 05:00:00 22.9 5 Este 10 Este 0 -- -- 33
2017-07-29 04:00:00 24 4 Este 9 Este 0 -- -- 31
2017-07-29 03:00:00 24.9 4 Sudeste 10 Oeste 0 -- -- 30
2017-07-29 02:00:00 26 7 Este 14 Este 0 -- -- 28
2017-07-29 01:00:00 25.8 7 Este 12 Este 0 -- -- 30
2017-07-29 00:00:00 26.1 6 Este 11 Este 0 -- -- 31
2017-07-28 23:00:00 27 8 Este 13 Este 0 -- -- 27
2017-07-28 22:00:00 28.3 7 Este 9 Este 0 -- -- 26
2017-07-28 21:00:00 31.7 2 Noroeste 10 Oeste 0 -- -- 21
2017-07-28 20:00:00 34.2 5 Oeste 15 Oeste 0 -- -- 19
2017-07-28 19:00:00 35 10 Oeste 19 Oeste 0 -- -- 19
2017-07-28 18:00:00 35.5 12 Oeste 21 Oeste 0 -- -- 20
2017-07-28 17:00:00 35.5 12 Sudeste 28 Este 0 -- -- 19
2017-07-28 16:00:00 35.8 15 Este 25 Sudeste 0 -- -- 18
2017-07-28 15:00:00 34.8 15 Oeste 29 Este 0 -- -- 26
2017-07-28 14:00:00 35.1 20 Este 37 Este 0 -- -- 16
2017-07-28 13:00:00 35.6 19 Este 34 Este 0 -- -- 16
2017-07-28 12:00:00 34.5 18 Este 34 Este 0 -- -- 15
2017-07-28 11:00:00 33.3 15 Este 36 Este 0 -- -- 14
2017-07-28 10:00:00 30.1 17 Sudeste 28 Este 0 -- -- 21
2017-07-28 09:00:00 30.6 9 Sudeste 22 Este 0 -- -- 16
2017-07-28 08:00:00 29.5 10 Sudeste 22 Sudeste 0 -- -- 17
2017-07-28 07:00:00 29.9 15 Sudeste 26 Sudeste 0 -- -- 14
2017-07-28 06:00:00 29.6 13 Sudeste 24 Sudeste 0 -- -- 13
2017-07-28 05:00:00 29.6 14 Sudeste 25 Sudeste 0 -- -- 12
2017-07-28 04:00:00 29.1 12 Sudeste 18 Sudeste 0 -- -- 11
2017-07-28 03:00:00 29 11 Sudeste 23 Este 0 -- -- 10
2017-07-28 02:00:00 28.1 4 Este 14 Este 0 -- -- 12
2017-07-28 01:00:00 29.5 6 Sur 23 Sudeste 0 -- -- 12
2017-07-28 00:00:00 27.3 6 Este 15 Sudeste 0 -- -- 24
2017-07-27 23:00:00 29 11 Sudeste 17 Sudeste 0 -- -- 17
2017-07-27 22:00:00 29.2 9 Sudeste 15 Este 0 -- -- 18
2017-07-27 21:00:00 30.5 3 Oeste 8 Oeste 0 -- -- 35
2017-07-27 20:00:00 32.5 6 Oeste 13 Oeste 0 -- -- 29
2017-07-27 19:00:00 32.7 9 Oeste 15 Oeste 0 -- -- 26
2017-07-27 18:00:00 32.6 11 Oeste 20 Oeste 0 -- -- 28
2017-07-27 17:00:00 32.9 12 Oeste 21 Oeste 0 -- -- 30
2017-07-27 16:00:00 33.8 14 Oeste 23 Oeste 0 -- -- 29
2017-07-27 15:00:00 35.1 17 Oeste 30 Este 0 -- -- 27
2017-07-27 14:00:00 35.5 17 Este 32 Este 0 -- -- 17
2017-07-27 13:00:00 35.5 17 Este 27 Este 0 -- -- 16
2017-07-27 12:00:00 35.3 7 Sudeste 28 Este 0 -- -- 16
2017-07-27 11:00:00 33.8 19 Este 31 Este 0 -- -- 15
2017-07-27 10:00:00 32.9 13 Este 26 Este 0 -- -- 14
2017-07-27 09:00:00 29.8 4 Este 9 Sur 0 -- -- 16
2017-07-27 08:00:00 28.2 5 Sur 15 Sudeste 0 -- -- 16
2017-07-27 07:00:00 24.4 6 Este 11 Nordeste 0 -- -- 23
2017-07-27 06:00:00 25.7 3 Nordeste 15 Sudeste 0 -- -- 25
2017-07-27 05:00:00 28.4 7 Sudeste 13 Sur 0 -- -- 15
2017-07-27 04:00:00 28.8 9 Sudeste 23 Sudeste 0 -- -- 13
2017-07-27 03:00:00 29 11 Sudeste 24 Sudeste 0 -- -- 12
2017-07-27 02:00:00 28.9 14 Sudeste 24 Sudeste 0 -- -- 12
2017-07-27 01:00:00 26 10 Sudeste 18 Este 0 -- -- 15
2017-07-27 00:00:00 24.8 5 Este 8 Este 0 -- -- 36
2017-07-26 23:00:00 26.4 2 Este 17 Sudeste 0 -- -- 28
2017-07-26 22:00:00 26.6 5 Este 8 Este 0 -- -- 32
2017-07-26 21:00:00 28.4 0 Calma 10 Oeste 0 -- -- 37
2017-07-26 20:00:00 29.9 6 Oeste 13 Oeste 0 -- -- 36
2017-07-26 19:00:00 30.4 9 Oeste 14 Oeste 0 -- -- 39
2017-07-26 18:00:00 30.6 9 Oeste 18 Oeste 0 -- -- 38
2017-07-26 17:00:00 30.7 9 Oeste 21 Oeste 0 -- -- 32
2017-07-26 16:00:00 30.1 12 Oeste 23 Oeste 0 -- -- 39
2017-07-26 15:00:00 30.3 15 Oeste 22 Oeste 0 -- -- 39
2017-07-26 14:00:00 30.1 14 Oeste 24 Oeste 0 -- -- 36
2017-07-26 13:00:00 31.7 9 Oeste 25 Sudeste 0 -- -- 35
2017-07-26 12:00:00 32.7 8 Sur 25 Este 0 -- -- 24
2017-07-26 11:00:00 30.8 15 Este 26 Este 0 -- -- 18
2017-07-26 10:00:00 29 5 Nordeste 12 Este 0 -- -- 22
2017-07-26 09:00:00 24.9 2 Norte 8 Sur 0 -- -- 36
2017-07-26 08:00:00 24.1 6 Este 13 Sudeste 0 -- -- 39
2017-07-26 07:00:00 25.2 8 Sudeste 18 Este 0 -- -- 22
2017-07-26 06:00:00 23.4 6 Este 14 Este 0 -- -- 26
2017-07-26 05:00:00 25.6 13 Sudeste 22 Este 0 -- -- 22
2017-07-26 04:00:00 25.5 9 Sudeste 21 Sudeste 0 -- -- 21
2017-07-26 03:00:00 25.3 11 Sudeste 21 Sudeste 0 -- -- 24
2017-07-26 02:00:00 25.3 10 Sudeste 18 Sudeste 0 -- -- 24
2017-07-26 01:00:00 25 9 Sudeste 23 Este 0 -- -- 26
2017-07-26 00:00:00 25.1 14 Este 28 Este 0 -- -- 24
2017-07-25 23:00:00 25.2 15 Este 27 Sudeste 0 -- -- 24
2017-07-25 22:00:00 25.3 15 Sudeste 31 Este 0 -- -- 24
2017-07-25 21:00:00 26.2 13 Este 22 Este 0 -- -- 23
2017-07-25 20:00:00 25.6 9 Oeste 22 Oeste 0 -- -- 62
2017-07-25 19:00:00 26.9 9 Oeste 19 Oeste 0 -- -- 57
2017-07-25 18:00:00 27.8 11 Oeste 21 Oeste 0 -- -- 54
2017-07-25 17:00:00 28.9 18 Oeste 26 Oeste 0 -- -- 50
2017-07-25 16:00:00 27.2 17 Oeste 27 Noroeste 0 -- -- 56
2017-07-25 15:00:00 26.9 18 Oeste 32 Oeste 0 -- -- 56
2017-07-25 14:00:00 31.2 19 Sudeste 37 Sudeste 0 -- -- 23
2017-07-25 13:00:00 32.7 17 Sudeste 33 Este 0 -- -- 16
2017-07-25 12:00:00 32 16 Este 41 Este 0 -- -- 28
2017-07-25 11:00:00 30.3 19 Este 36 Este 0 -- -- 17
2017-07-25 10:00:00 28 9 Sudeste 36 Este 0 -- -- 26
2017-07-25 09:00:00 28.6 18 Este 48 Este 0 -- -- 13
2017-07-25 08:00:00 27.5 24 Este 46 Este 0 -- -- 19
2017-07-25 07:00:00 27.1 22 Este 45 Este 0 -- -- 20
2017-07-25 06:00:00 26.9 22 Este 46 Este 0 -- -- 18
2017-07-25 05:00:00 26.8 23 Este 46 Este 0 -- -- 17
2017-07-25 04:00:00 26.7 22 Este 44 Este 0 -- -- 17
2017-07-25 03:00:00 26.3 25 Este 46 Este 0 -- -- 17
2017-07-25 02:00:00 26.8 24 Este 42 Este 0 -- -- 21
2017-07-25 01:00:00 26.6 24 Este 45 Este 0 -- -- 20
2017-07-25 00:00:00 26.4 21 Este 51 Este 0 -- -- 21
2017-07-24 23:00:00 25 14 Este 30 Este 0 -- -- 23
2017-07-24 22:00:00 24.8 10 Este 31 Este 0 -- -- 30
2017-07-24 21:00:00 25 16 Este 31 Este 0 -- -- 20
2017-07-24 20:00:00 26 8 Este 27 Este 0 -- -- 33
2017-07-24 19:00:00 25.2 9 Oeste 18 Oeste 0 -- -- 61
2017-07-24 18:00:00 25.5 11 Oeste 19 Oeste 0 -- -- 60
2017-07-24 17:00:00 26.1 12 Oeste 21 Oeste 0 -- -- 59
2017-07-24 16:00:00 26.5 12 Oeste 21 Oeste 0 -- -- 55
2017-07-24 15:00:00 24.8 9 Oeste 23 Oeste 0 -- -- 58
2017-07-24 14:00:00 26.5 10 Sur 39 Sudeste 0 -- -- 51
2017-07-24 13:00:00 23.7 25 Este 38 Sudeste 0 -- -- 57
2017-07-24 12:00:00 23.2 19 Este 42 Este 0 -- -- 56
2017-07-24 11:00:00 21.8 18 Sudeste 45 Este 0 -- -- 56
2017-07-24 10:00:00 18.7 28 Este 46 Este 0 -- -- 70
2017-07-24 09:00:00 17.6 22 Este 46 Sudeste 0 -- -- 69
2017-07-24 08:00:00 15.7 4 Oeste 14 Oeste 0 -- -- 85
2017-07-24 07:00:00 17.5 12 Este 45 Este 0 -- -- 49
2017-07-24 06:00:00 17.3 21 Sudeste 39 Este 0 -- -- 61
2017-07-24 05:00:00 15.2 12 Oeste 21 Oeste 0 -- -- 85
2017-07-24 04:00:00 14.7 4 Noroeste 23 Este 0 -- -- 72
2017-07-24 03:00:00 16.9 7 Sur 41 Este 0 -- -- 59
2017-07-24 02:00:00 16.4 28 Este 54 Este 0 -- -- 76
2017-07-24 01:00:00 15.7 33 Este 51 Sudeste 0 -- -- 84
2017-07-24 00:00:00 16.1 25 Este 56 Este 0 -- -- 81
2017-07-23 23:00:00 15.7 25 Este 48 Este 0 -- -- 80
2017-07-23 22:00:00 15.8 30 Este 53 Este 0 -- -- 81
2017-07-23 21:00:00 16.5 29 Este 53 Este 0 -- -- 83
2017-07-23 20:00:00 17.6 31 Este 53 Este 0 -- -- 76
2017-07-23 19:00:00 18.5 31 Este 53 Este 0 -- -- 75
2017-07-23 18:00:00 19.7 29 Este 61 Sudeste 0 -- -- 71
2017-07-23 17:00:00 20.1 34 Este 59 Este 0 -- -- 68
2017-07-23 16:00:00 20.3 34 Este 55 Este 0 -- -- 66
2017-07-23 15:00:00 20.8 32 Este 58 Este 0 -- -- 65
2017-07-23 14:00:00 19.6 35 Este 61 Este 0 -- -- 70
2017-07-23 13:00:00 19.6 33 Este 55 Este 0 -- -- 70
2017-07-23 12:00:00 19.3 29 Este 62 Este 0 -- -- 66
2017-07-23 11:00:00 18.5 32 Este 61 Este 0 -- -- 73
2017-07-23 10:00:00 16.9 33 Este 54 Este 0 -- -- 74
2017-07-23 09:00:00 16.3 30 Este 50 Este 0 -- -- 74
2017-07-23 08:00:00 14.8 29 Este 54 Este 0 -- -- 77
2017-07-23 07:00:00 15 27 Este 59 Este 0 -- -- 74
2017-07-23 06:00:00 15.1 30 Este 59 Este 0 -- -- 79
2017-07-23 05:00:00 15.4 25 Este 54 Sudeste 0 -- -- 67
2017-07-23 04:00:00 15.5 26 Este 55 Este 0 -- -- 69
2017-07-23 03:00:00 15.1 33 Este 62 Este 0 -- -- 77
2017-07-23 02:00:00 15.9 28 Este 57 Este 0 -- -- 74
2017-07-23 01:00:00 15.5 30 Este 62 Este 0 -- -- 79
2017-07-23 00:00:00 15.9 29 Este 67 Este 0 -- -- 78